createdAt,value
2022-09-21T00:01:31.544Z,100.00
2022-09-21T00:04:01.461Z,100.00
2022-09-21T00:06:35.454Z,100.00
2022-09-21T00:09:05.441Z,100.00
2022-09-21T00:11:35.681Z,100.00
2022-09-21T00:14:08.204Z,100.00
2022-09-21T00:16:41.440Z,100.00
2022-09-21T00:19:09.991Z,100.00
2022-09-21T00:21:38.333Z,100.00
2022-09-21T00:24:06.829Z,100.00
2022-09-21T00:26:33.843Z,100.00
2022-09-21T00:29:03.042Z,100.00
2022-09-21T00:31:32.014Z,100.00
2022-09-21T00:34:00.355Z,100.00
2022-09-21T00:36:28.377Z,100.00
2022-09-21T00:38:58.029Z,100.00
2022-09-21T00:41:26.978Z,100.00
2022-09-21T00:44:22.017Z,100.00
2022-09-21T00:46:55.836Z,100.00
2022-09-21T00:49:24.305Z,100.00
2022-09-21T00:51:53.275Z,100.00
2022-09-21T00:54:28.813Z,100.00
2022-09-21T00:56:56.681Z,100.00
2022-09-21T00:59:29.375Z,100.00
2022-09-21T01:01:58.679Z,100.00
2022-09-21T01:04:28.374Z,100.00
2022-09-21T01:07:01.631Z,100.00
2022-09-21T01:09:28.943Z,100.00
2022-09-21T01:12:04.956Z,100.00
2022-09-21T01:14:41.541Z,100.00
2022-09-21T01:17:35.504Z,100.00
2022-09-21T01:20:21.001Z,100.00
2022-09-21T01:23:06.531Z,100.00
2022-09-21T01:25:54.923Z,100.00
2022-09-21T01:29:03.779Z,100.00
2022-09-21T01:31:40.249Z,100.00
2022-09-21T01:34:34.091Z,100.00
2022-09-21T01:37:07.919Z,100.00
2022-09-21T01:39:37.692Z,100.00
2022-09-21T01:42:07.288Z,100.00
2022-09-21T01:44:38.445Z,100.00
2022-09-21T01:47:14.610Z,100.00
2022-09-21T01:49:54.041Z,100.00
2022-09-21T01:52:27.181Z,100.00
2022-09-21T01:55:09.647Z,100.00
2022-09-21T01:57:54.281Z,100.00
2022-09-21T02:00:22.486Z,100.00
2022-09-21T02:03:13.875Z,100.00
2022-09-21T02:05:41.754Z,100.00
2022-09-21T02:08:10.240Z,100.00
2022-09-21T02:10:42.415Z,100.00
2022-09-21T02:13:10.084Z,100.00
2022-09-21T02:15:44.700Z,100.00
2022-09-21T02:18:34.012Z,100.00
2022-09-21T02:21:04.293Z,100.00
2022-09-21T02:23:46.701Z,100.00
2022-09-21T02:26:23.317Z,100.00
2022-09-21T02:28:55.908Z,100.00
2022-09-21T02:31:47.254Z,100.00
2022-09-21T02:34:36.524Z,100.00
2022-09-21T02:37:33.032Z,100.00
2022-09-21T02:40:15.825Z,100.00
2022-09-21T02:42:47.935Z,100.00
2022-09-21T02:45:22.697Z,100.00
2022-09-21T02:47:56.857Z,100.00
2022-09-21T02:50:33.793Z,100.00
2022-09-21T02:53:04.638Z,100.00
2022-09-21T02:55:33.942Z,100.00
2022-09-21T02:58:06.314Z,100.00
2022-09-21T03:00:35.483Z,100.00
2022-09-21T03:03:17.279Z,100.00
2022-09-21T03:05:48.725Z,100.00
2022-09-21T03:08:19.094Z,100.00
2022-09-21T03:10:47.726Z,100.00
2022-09-21T03:13:14.737Z,100.00
2022-09-21T03:15:41.931Z,100.00
2022-09-21T03:18:11.377Z,100.00
2022-09-21T03:20:40.242Z,100.00
2022-09-21T03:23:10.004Z,100.00
2022-09-21T03:25:38.745Z,100.00
2022-09-21T03:28:05.966Z,100.00
2022-09-21T03:30:35.565Z,100.00
2022-09-21T03:33:03.544Z,100.00
2022-09-21T03:35:30.544Z,100.00
2022-09-21T03:38:00.925Z,100.00
2022-09-21T03:40:31.336Z,100.00
2022-09-21T03:42:58.314Z,100.00
2022-09-21T03:45:27.459Z,100.00
2022-09-21T03:47:57.064Z,100.00
2022-09-21T03:50:25.869Z,100.00
2022-09-21T03:52:52.914Z,100.00
2022-09-21T03:55:20.091Z,100.00
2022-09-21T03:57:47.380Z,100.00
2022-09-21T04:00:14.948Z,100.00
2022-09-21T04:02:42.314Z,100.00
2022-09-21T04:05:11.865Z,100.00
2022-09-21T04:07:39.751Z,100.00
2022-09-21T04:10:12.182Z,100.00
2022-09-21T04:12:42.406Z,100.00
2022-09-21T04:15:14.360Z,100.00
2022-09-21T04:17:41.407Z,100.00
2022-09-21T04:20:09.662Z,100.00
2022-09-21T04:22:41.134Z,100.00
2022-09-21T04:25:10.399Z,100.00
2022-09-21T04:27:37.866Z,100.00
2022-09-21T04:30:06.025Z,100.00
2022-09-21T04:32:33.178Z,100.00
2022-09-21T04:35:00.299Z,100.00
2022-09-21T04:37:27.314Z,100.00
2022-09-21T04:39:54.193Z,100.00
2022-09-21T04:42:21.255Z,100.00
2022-09-21T04:44:48.103Z,100.00
2022-09-21T04:47:15.214Z,100.00
2022-09-21T04:49:42.243Z,100.00
2022-09-21T04:52:09.217Z,100.00
2022-09-21T04:54:36.121Z,100.00
2022-09-21T04:57:03.363Z,100.00
2022-09-21T04:59:30.220Z,100.00
2022-09-21T05:01:57.070Z,100.00
2022-09-21T05:04:24.193Z,100.00
2022-09-21T05:06:51.129Z,100.00
2022-09-21T05:09:39.100Z,100.00
2022-09-21T05:12:06.535Z,100.00
2022-09-21T05:14:33.583Z,100.00
2022-09-21T05:17:00.428Z,100.00
2022-09-21T05:19:29.843Z,100.00
2022-09-21T05:21:56.836Z,100.00
2022-09-21T05:24:24.060Z,100.00
2022-09-21T05:26:51.403Z,100.00
2022-09-21T05:29:18.668Z,100.00
2022-09-21T05:31:56.807Z,100.00
2022-09-21T05:34:46.995Z,100.00
2022-09-21T05:37:51.451Z,100.00
2022-09-21T05:40:19.130Z,100.00
2022-09-21T05:42:46.258Z,100.00
2022-09-21T05:45:15.877Z,100.00
2022-09-21T05:47:53.777Z,100.00
2022-09-21T05:50:46.941Z,100.00
2022-09-21T05:53:29.604Z,100.00
2022-09-21T05:55:57.828Z,100.00
2022-09-21T05:58:37.099Z,100.00
2022-09-21T06:01:31.675Z,100.00
2022-09-21T06:03:59.947Z,100.00
2022-09-21T06:06:26.824Z,100.00
2022-09-21T06:08:54.081Z,100.00
2022-09-21T06:11:21.881Z,100.00
2022-09-21T06:13:48.795Z,100.00
2022-09-21T06:16:15.663Z,100.00
2022-09-21T06:18:45.474Z,100.00
2022-09-21T06:21:14.809Z,100.00
2022-09-21T06:23:41.736Z,100.00
2022-09-21T06:26:08.979Z,100.00
2022-09-21T06:28:36.011Z,100.00
2022-09-21T06:31:03.111Z,100.00
2022-09-21T06:33:30.302Z,100.00
2022-09-21T06:35:59.484Z,100.00
2022-09-21T06:38:29.529Z,100.00
2022-09-21T06:41:06.145Z,100.00
2022-09-21T06:43:33.396Z,100.00
2022-09-21T06:46:02.351Z,100.00
2022-09-21T06:48:31.208Z,100.00
2022-09-21T06:51:04.474Z,100.00
2022-09-21T06:53:34.318Z,100.00
2022-09-21T06:56:12.263Z,100.00
2022-09-21T06:58:39.380Z,100.00
2022-09-21T07:01:13.973Z,100.00
2022-09-21T07:03:42.296Z,100.00
2022-09-21T07:06:15.692Z,100.00
2022-09-21T07:11:35.555Z,100.00
2022-09-21T07:14:04.213Z,100.00
2022-09-21T07:16:31.254Z,100.00
2022-09-21T07:19:10.081Z,100.00
2022-09-21T07:21:38.106Z,100.00
2022-09-21T07:24:09.538Z,100.00
2022-09-21T07:26:39.192Z,100.00
2022-09-21T07:29:06.807Z,100.00
2022-09-21T07:31:34.119Z,86.97
2022-09-21T07:34:01.521Z,86.02
2022-09-21T07:36:28.985Z,80.22
2022-09-21T07:38:56.240Z,79.34
2022-09-21T07:41:23.377Z,79.68
2022-09-21T07:43:50.487Z,86.42
2022-09-21T07:46:17.426Z,84.56
2022-09-21T07:48:44.716Z,78.43
2022-09-21T07:51:14.174Z,79.61
2022-09-21T07:53:47.199Z,79.16
2022-09-21T07:56:17.655Z,82.78
2022-09-21T07:59:03.206Z,88.35
2022-09-21T08:01:31.166Z,92.84
2022-09-21T08:03:58.953Z,93.02
2022-09-21T08:06:28.253Z,94.00
2022-09-21T08:08:58.012Z,96.00
2022-09-21T08:11:27.681Z,97.93
2022-09-21T08:13:57.643Z,94.17
2022-09-21T08:16:25.860Z,81.30
2022-09-21T08:18:53.165Z,76.63
2022-09-21T08:21:22.997Z,76.75
2022-09-21T08:23:50.190Z,75.93
2022-09-21T08:26:20.042Z,76.46
2022-09-21T08:28:51.248Z,75.78
2022-09-21T08:31:21.943Z,76.13
2022-09-21T08:33:49.949Z,73.73
2022-09-21T08:36:18.575Z,74.66
2022-09-21T08:38:46.390Z,74.74
2022-09-21T08:41:20.275Z,79.95
2022-09-21T08:43:55.049Z,82.24
2022-09-21T08:46:27.710Z,86.82
2022-09-21T08:49:10.243Z,89.50
2022-09-21T08:51:42.719Z,88.74
2022-09-21T08:54:51.503Z,91.45
2022-09-21T08:57:19.429Z,94.48
2022-09-21T08:59:49.562Z,97.38
2022-09-21T09:02:41.785Z,98.31
2022-09-21T09:05:44.462Z,99.98
2022-09-21T09:08:18.938Z,97.92
2022-09-21T09:11:13.576Z,99.46
2022-09-21T09:14:09.667Z,97.49
2022-09-21T09:16:48.606Z,97.87
2022-09-21T09:19:31.607Z,97.24
2022-09-21T09:22:02.650Z,97.88
2022-09-21T09:24:44.028Z,98.02
2022-09-21T09:27:18.058Z,100.00
2022-09-21T09:30:03.550Z,100.00
2022-09-21T09:32:45.927Z,97.99
2022-09-21T09:35:22.360Z,96.86
2022-09-21T09:37:55.535Z,95.51
2022-09-21T09:41:05.790Z,92.33
2022-09-21T09:43:51.003Z,89.67
2022-09-21T09:46:52.041Z,88.48
2022-09-21T09:49:56.214Z,88.19
2022-09-21T09:52:25.737Z,85.62
2022-09-21T09:54:55.101Z,86.77
2022-09-21T09:57:32.119Z,87.79
2022-09-21T10:00:12.951Z,88.65
2022-09-21T10:02:49.539Z,91.66
2022-09-21T10:05:21.638Z,91.07
2022-09-21T10:07:48.880Z,89.83
2022-09-21T10:10:22.282Z,91.91
2022-09-21T10:12:52.779Z,93.42
2022-09-21T10:15:21.553Z,88.57
2022-09-21T10:17:49.646Z,88.78
2022-09-21T10:20:20.363Z,87.80
2022-09-21T10:22:55.355Z,88.07
2022-09-21T10:25:24.867Z,90.23
2022-09-21T10:27:56.182Z,84.17
2022-09-21T10:30:36.649Z,81.31
2022-09-21T10:33:03.653Z,78.95
2022-09-21T10:35:30.812Z,79.79
2022-09-21T10:38:22.770Z,77.75
2022-09-21T10:40:50.582Z,78.44
2022-09-21T10:43:44.643Z,80.06
2022-09-21T10:46:12.394Z,81.32
2022-09-21T10:48:39.315Z,81.28
2022-09-21T10:51:06.253Z,81.09
2022-09-21T10:53:36.517Z,81.58
2022-09-21T10:56:19.057Z,82.18
2022-09-21T10:59:22.640Z,80.68
2022-09-21T11:01:52.309Z,76.10
2022-09-21T11:04:31.067Z,74.77
2022-09-21T11:07:32.535Z,73.79
2022-09-21T11:10:34.122Z,73.24
2022-09-21T11:13:35.440Z,72.93
2022-09-21T11:16:15.414Z,69.43
2022-09-21T11:18:56.886Z,70.89
2022-09-21T11:21:31.508Z,70.03
2022-09-21T11:24:24.609Z,70.86
2022-09-21T11:26:54.855Z,68.07
2022-09-21T11:29:33.340Z,69.62
2022-09-21T11:32:41.425Z,68.28
2022-09-21T11:35:20.798Z,69.75
2022-09-21T11:38:06.123Z,67.72
2022-09-21T11:40:44.218Z,68.55
2022-09-21T11:43:42.688Z,68.58
2022-09-21T11:46:45.120Z,67.86
2022-09-21T11:50:03.070Z,67.67
2022-09-21T11:53:01.204Z,68.33
2022-09-21T11:56:01.972Z,63.14
2022-09-21T11:58:46.327Z,65.25
2022-09-21T12:01:32.292Z,66.93
2022-09-21T12:04:04.983Z,69.64
2022-09-21T12:06:52.976Z,71.70
2022-09-21T12:09:38.864Z,71.07
2022-09-21T12:12:17.100Z,73.09
2022-09-21T12:15:18.600Z,70.84
2022-09-21T12:18:16.863Z,71.89
2022-09-21T12:20:55.942Z,70.05
2022-09-21T12:23:43.415Z,70.71
2022-09-21T12:26:15.461Z,70.20
2022-09-21T12:28:49.016Z,67.32
2022-09-21T12:31:25.804Z,69.55
2022-09-21T12:34:05.068Z,71.20
2022-09-21T12:36:47.749Z,72.53
2022-09-21T12:39:28.532Z,73.73
2022-09-21T12:42:22.797Z,73.04
2022-09-21T12:45:01.799Z,73.87
2022-09-21T12:47:52.051Z,70.77
2022-09-21T12:50:45.055Z,72.20
2022-09-21T12:53:19.759Z,72.70
2022-09-21T12:56:18.329Z,72.12
2022-09-21T12:59:10.831Z,72.78
2022-09-21T13:02:14.490Z,73.35
2022-09-21T13:05:05.036Z,74.23
2022-09-21T13:07:47.981Z,72.66
2022-09-21T13:10:23.395Z,73.60
2022-09-21T13:12:55.377Z,74.23
2022-09-21T13:15:27.017Z,73.87
2022-09-21T13:18:06.472Z,74.01
2022-09-21T13:20:36.592Z,73.67
2022-09-21T13:23:04.283Z,74.86
2022-09-21T13:25:37.666Z,74.48
2022-09-21T13:28:05.084Z,76.21
2022-09-21T13:31:30.189Z,77.75
2022-09-21T13:34:39.732Z,79.46
2022-09-21T13:37:11.891Z,79.94
2022-09-21T13:40:02.231Z,79.50
2022-09-21T13:42:36.904Z,80.73
2022-09-21T13:45:13.892Z,81.25
2022-09-21T13:47:50.782Z,79.90
2022-09-21T13:50:32.901Z,80.30
2022-09-21T13:53:07.066Z,78.38
2022-09-21T13:55:41.842Z,80.04
2022-09-21T13:58:29.944Z,81.15
2022-09-21T14:01:00.561Z,83.10
2022-09-21T14:03:34.588Z,81.34
2022-09-21T14:06:17.728Z,81.68
2022-09-21T14:08:50.994Z,80.87
2022-09-21T14:11:45.188Z,81.01
2022-09-21T14:14:15.072Z,83.80
2022-09-21T14:16:45.027Z,81.44
2022-09-21T14:19:18.230Z,82.89
2022-09-21T14:22:04.726Z,80.92
2022-09-21T14:24:51.311Z,81.46
2022-09-21T14:27:45.432Z,84.29
2022-09-21T14:30:25.453Z,83.50
2022-09-21T14:33:02.413Z,85.18
2022-09-21T14:35:42.350Z,84.82
2022-09-21T14:38:30.534Z,84.72
2022-09-21T14:41:01.828Z,84.55
2022-09-21T14:43:35.370Z,84.40
2022-09-21T14:46:11.864Z,82.88
2022-09-21T14:49:04.775Z,82.67
2022-09-21T14:52:20.191Z,84.44
2022-09-21T14:55:08.236Z,82.26
2022-09-21T14:57:50.335Z,81.28
2022-09-21T15:00:24.575Z,81.28
2022-09-21T15:03:25.342Z,81.62
2022-09-21T15:06:23.117Z,81.50
2022-09-21T15:09:09.466Z,80.12
2022-09-21T15:11:42.329Z,81.79
2022-09-21T15:14:21.423Z,83.16
2022-09-21T15:16:51.780Z,82.67
2022-09-21T15:19:19.010Z,83.12
2022-09-21T15:21:48.451Z,82.76
2022-09-21T15:24:19.897Z,81.21
2022-09-21T15:26:51.659Z,80.95
2022-09-21T15:29:31.912Z,81.78
2022-09-21T15:32:01.649Z,80.41
2022-09-21T15:34:29.660Z,78.78
2022-09-21T15:37:15.665Z,79.41
2022-09-21T15:39:46.006Z,78.54
2022-09-21T15:42:18.681Z,78.46
2022-09-21T15:44:50.740Z,77.83
2022-09-21T15:47:21.865Z,80.91
2022-09-21T15:49:49.566Z,80.21
2022-09-21T15:52:24.331Z,80.15
2022-09-21T15:55:15.693Z,81.26
2022-09-21T15:57:43.677Z,82.39
2022-09-21T16:00:17.179Z,84.55
2022-09-21T16:02:56.169Z,86.73
2022-09-21T16:05:25.629Z,88.78
2022-09-21T16:08:17.239Z,88.20
2022-09-21T16:10:45.404Z,87.39
2022-09-21T16:13:33.830Z,85.66
2022-09-21T16:16:13.523Z,83.98
2022-09-21T16:18:43.143Z,83.30
2022-09-21T16:21:22.037Z,83.50
2022-09-21T16:23:51.992Z,84.06
2022-09-21T16:26:34.022Z,84.00
2022-09-21T16:29:09.057Z,85.08
2022-09-21T16:31:37.432Z,84.08
2022-09-21T16:34:43.523Z,83.33
2022-09-21T16:37:25.971Z,83.98
2022-09-21T16:39:58.571Z,84.33
2022-09-21T16:42:33.407Z,83.58
2022-09-21T16:45:01.277Z,82.03
2022-09-21T16:47:29.364Z,82.91
2022-09-21T16:50:02.632Z,84.46
2022-09-21T16:52:30.822Z,84.23
2022-09-21T16:54:59.000Z,84.87
2022-09-21T16:57:26.706Z,85.06
2022-09-21T16:59:53.929Z,83.89
2022-09-21T17:02:20.895Z,86.76
2022-09-21T17:04:48.174Z,86.08
2022-09-21T17:07:17.052Z,86.51
2022-09-21T17:09:47.857Z,85.52
2022-09-21T17:12:17.875Z,84.77
2022-09-21T17:14:47.334Z,84.66
2022-09-21T17:17:21.322Z,86.07
2022-09-21T17:19:50.268Z,86.15
2022-09-21T17:22:18.239Z,87.10
2022-09-21T17:24:50.875Z,86.41
2022-09-21T17:27:22.700Z,86.18
2022-09-21T17:29:50.461Z,85.87
2022-09-21T17:32:20.668Z,87.12
2022-09-21T17:34:56.581Z,88.73
2022-09-21T17:37:24.222Z,88.29
2022-09-21T17:39:54.852Z,88.73
2022-09-21T17:42:25.128Z,91.08
2022-09-21T17:45:13.548Z,91.54
2022-09-21T17:47:42.064Z,94.02
2022-09-21T17:50:12.259Z,94.20
2022-09-21T17:53:00.494Z,94.77
2022-09-21T17:55:32.209Z,95.58
2022-09-21T17:58:02.401Z,97.73
2022-09-21T18:00:41.614Z,100.00
2022-09-21T18:03:17.435Z,100.00
2022-09-21T18:05:57.254Z,100.00
2022-09-21T18:08:30.109Z,100.00
2022-09-21T18:11:25.344Z,100.00
2022-09-21T18:14:30.213Z,100.00
2022-09-21T18:17:15.823Z,100.00
2022-09-21T18:20:10.980Z,100.00
2022-09-21T18:22:41.548Z,100.00
2022-09-21T18:25:18.463Z,100.00
2022-09-21T18:27:48.726Z,100.00
2022-09-21T18:30:17.574Z,100.00
2022-09-21T18:33:04.257Z,100.00
2022-09-21T18:35:41.829Z,100.00
2022-09-21T18:38:23.953Z,100.00
2022-09-21T18:41:09.697Z,100.00
2022-09-21T18:43:39.604Z,100.00
2022-09-21T18:46:17.016Z,100.00
2022-09-21T18:49:13.252Z,100.00
2022-09-21T18:51:47.020Z,100.00
2022-09-21T18:54:25.740Z,100.00
2022-09-21T18:56:56.109Z,100.00
2022-09-21T18:59:31.042Z,100.00
2022-09-21T19:01:59.800Z,100.00
2022-09-21T19:04:28.015Z,100.00
2022-09-21T19:07:05.086Z,100.00
2022-09-21T19:09:45.270Z,100.00
2022-09-21T19:12:17.786Z,100.00
2022-09-21T19:16:00.513Z,100.00
2022-09-21T19:18:52.385Z,100.00
2022-09-21T19:21:51.060Z,100.00
2022-09-21T19:24:34.931Z,100.00
2022-09-21T19:27:41.659Z,100.00
2022-09-21T19:30:12.123Z,100.00
2022-09-21T19:32:47.605Z,100.00
2022-09-21T19:35:21.243Z,100.00
2022-09-21T19:37:50.483Z,100.00
2022-09-21T19:40:19.914Z,100.00
2022-09-21T19:43:13.423Z,100.00
2022-09-21T19:45:50.687Z,100.00
2022-09-21T19:48:19.127Z,100.00
2022-09-21T19:51:03.333Z,100.00
2022-09-21T19:53:49.642Z,100.00
2022-09-21T19:56:37.658Z,100.00
2022-09-21T19:59:27.221Z,100.00
2022-09-21T20:01:58.465Z,100.00
2022-09-21T20:04:39.370Z,100.00
2022-09-21T20:07:25.153Z,100.00
2022-09-21T20:10:25.261Z,100.00
2022-09-21T20:13:08.550Z,100.00
2022-09-21T20:15:47.059Z,100.00
2022-09-21T20:18:28.746Z,100.00
2022-09-21T20:20:57.450Z,100.00
2022-09-21T20:23:25.814Z,100.00
2022-09-21T20:26:31.458Z,100.00
2022-09-21T20:29:00.091Z,100.00
2022-09-21T20:31:27.434Z,100.00
2022-09-21T20:34:15.332Z,100.00
2022-09-21T20:36:45.410Z,100.00
2022-09-21T20:39:17.117Z,100.00
2022-09-21T20:41:43.999Z,100.00
2022-09-21T20:44:14.056Z,100.00
2022-09-21T20:46:46.259Z,100.00
2022-09-21T20:49:15.385Z,100.00
2022-09-21T20:51:42.451Z,100.00
2022-09-21T20:54:09.475Z,100.00
2022-09-21T20:56:36.557Z,100.00
2022-09-21T20:59:03.727Z,100.00
2022-09-21T21:01:30.874Z,100.00
2022-09-21T21:04:03.598Z,100.00
2022-09-21T21:06:34.150Z,100.00
2022-09-21T21:09:01.248Z,100.00
2022-09-21T21:11:28.293Z,100.00
2022-09-21T21:13:56.253Z,100.00
2022-09-21T21:16:23.332Z,100.00
2022-09-21T21:18:55.687Z,100.00
2022-09-21T21:21:24.695Z,100.00
2022-09-21T21:24:11.052Z,100.00
2022-09-21T21:27:00.824Z,100.00
2022-09-21T21:29:27.887Z,100.00
2022-09-21T21:31:57.629Z,100.00
2022-09-21T21:34:25.401Z,100.00
2022-09-21T21:36:52.859Z,100.00
2022-09-21T21:39:20.187Z,100.00
2022-09-21T21:41:47.702Z,100.00
2022-09-21T21:44:15.866Z,100.00
2022-09-21T21:46:43.418Z,100.00
2022-09-21T21:49:13.551Z,100.00
2022-09-21T21:51:40.672Z,100.00
2022-09-21T21:54:08.544Z,100.00
2022-09-21T21:56:35.512Z,100.00
2022-09-21T21:59:02.970Z,100.00
2022-09-21T22:01:30.277Z,100.00
2022-09-21T22:03:59.762Z,100.00
2022-09-21T22:06:28.424Z,100.00
2022-09-21T22:08:56.810Z,100.00
2022-09-21T22:11:25.598Z,100.00
2022-09-21T22:13:54.181Z,100.00
2022-09-21T22:16:23.583Z,100.00
2022-09-21T22:18:52.077Z,100.00
2022-09-21T22:21:24.552Z,100.00
2022-09-21T22:24:02.974Z,100.00
2022-09-21T22:26:33.536Z,100.00
2022-09-21T22:29:02.909Z,100.00
2022-09-21T22:31:33.035Z,100.00
2022-09-21T22:34:02.787Z,100.00
2022-09-21T22:36:32.507Z,100.00
2022-09-21T22:38:59.855Z,100.00
2022-09-21T22:41:29.983Z,100.00
2022-09-21T22:43:59.970Z,100.00
2022-09-21T22:46:31.022Z,100.00
2022-09-21T22:48:58.615Z,100.00
2022-09-21T22:51:26.085Z,100.00
2022-09-21T22:53:53.128Z,100.00
2022-09-21T22:56:23.358Z,100.00
2022-09-21T22:58:57.368Z,100.00
2022-09-21T23:01:34.511Z,100.00
2022-09-21T23:04:06.999Z,100.00
2022-09-21T23:06:36.300Z,100.00
2022-09-21T23:09:06.863Z,100.00
2022-09-21T23:11:39.417Z,100.00
2022-09-21T23:14:06.912Z,100.00
2022-09-21T23:16:34.209Z,100.00
2022-09-21T23:19:01.230Z,100.00
2022-09-21T23:21:30.492Z,100.00
2022-09-21T23:24:00.638Z,100.00
2022-09-21T23:26:30.231Z,100.00
2022-09-21T23:29:02.094Z,100.00
2022-09-21T23:31:31.142Z,100.00
2022-09-21T23:34:09.253Z,100.00
2022-09-21T23:36:36.588Z,100.00
2022-09-21T23:39:08.000Z,100.00
2022-09-21T23:41:36.328Z,100.00
2022-09-21T23:44:04.572Z,100.00
2022-09-21T23:46:34.860Z,100.00
2022-09-21T23:49:02.500Z,100.00
2022-09-21T23:51:32.792Z,100.00
2022-09-21T23:54:00.270Z,100.00
2022-09-21T23:56:30.385Z,100.00
2022-09-21T23:58:57.956Z,100.00
